Time,TemperatureF,DewpointF,PressureIn,WindDirection,WindDirectionDegrees,WindSpeedMPH,WindSpeedGustMPH,Humidity,HourlyPrecipIn,Conditions,Clouds,dailyrainin,SoftwareType,DateUTC
2013-08-10 00:02:00,70.0,68.0,30.07,WNW,290,4.0,7.0,95,0.00,,,0.84,,2013-08-10 04:02:00,
2013-08-10 00:12:00,70.0,68.0,30.07,WNW,290,4.0,7.0,95,0.00,,,0.84,,2013-08-10 04:12:00,
2013-08-10 00:22:00,69.0,68.0,30.08,WNW,290,0.0,4.0,95,0.00,,,0.84,,2013-08-10 04:22:00,
2013-08-10 00:32:00,69.0,68.0,30.07,WNW,290,0.0,2.0,95,0.00,,,0.82,,2013-08-10 04:32:00,
2013-08-10 00:43:00,69.0,68.0,30.08,WNW,290,0.0,5.0,95,0.00,,,0.82,,2013-08-10 04:43:00,
2013-08-10 00:53:00,69.0,68.0,30.08,WNW,290,0.0,1.0,95,0.00,,,0.82,,2013-08-10 04:53:00,
2013-08-10 01:02:00,69.0,68.0,30.08,WNW,290,0.0,4.0,95,0.00,,,0.82,,2013-08-10 05:02:00,
2013-08-10 01:11:00,69.0,68.0,30.08,WNW,290,1.0,4.0,95,0.00,,,0.82,,2013-08-10 05:11:00,
2013-08-10 01:22:00,69.0,68.0,30.08,WNW,290,0.0,2.0,95,0.00,,,0.82,,2013-08-10 05:22:00,
2013-08-10 01:32:00,68.0,67.0,30.09,WNW,290,0.0,4.0,95,0.00,,,0.78,,2013-08-10 05:32:00,
2013-08-10 01:43:00,68.0,67.0,30.09,WNW,290,1.0,4.0,95,0.00,,,0.78,,2013-08-10 05:43:00,
2013-08-10 01:52:00,68.0,67.0,30.09,WNW,290,1.0,4.0,95,0.00,,,0.78,,2013-08-10 05:52:00,
2013-08-10 02:02:00,68.0,67.0,30.09,NW,321,4.0,5.0,95,0.00,,,0.78,,2013-08-10 06:02:00,
2013-08-10 02:32:00,68.0,67.0,30.09,NW,307,3.0,6.0,95,0.00,,,0.78,,2013-08-10 06:32:00,
2013-08-10 02:44:00,68.0,67.0,30.09,North,349,3.0,6.0,95,0.00,,,0.78,,2013-08-10 06:44:00,
2013-08-10 02:53:00,68.0,67.0,30.09,NNW,348,3.0,5.0,95,0.00,,,0.78,,2013-08-10 06:53:00,
2013-08-10 03:02:00,68.0,67.0,30.09,NNW,348,0.0,4.0,95,0.00,,,0.78,,2013-08-10 07:02:00,
2013-08-10 03:13:00,68.0,67.0,30.09,NNW,348,1.0,5.0,95,0.00,,,0.78,,2013-08-10 07:13:00,
2013-08-10 03:22:00,68.0,67.0,30.09,NNW,348,1.0,5.0,95,0.00,,,0.78,,2013-08-10 07:22:00,
2013-08-10 03:33:00,67.0,66.0,30.09,NNW,348,2.0,6.0,95,0.00,,,0.78,,2013-08-10 07:33:00,
2013-08-10 03:52:00,67.0,66.0,30.09,NNW,348,1.0,4.0,95,0.00,,,0.78,,2013-08-10 07:52:00,
2013-08-10 04:02:00,66.0,65.0,30.09,NNW,348,0.0,2.0,95,0.00,,,0.78,,2013-08-10 08:02:00,
2013-08-10 04:32:00,66.0,65.0,30.09,NNW,348,0.0,4.0,95,0.00,,,0.78,,2013-08-10 08:32:00,
2013-08-10 04:43:00,66.0,65.0,30.09,NNW,348,0.0,4.0,95,0.00,,,0.78,,2013-08-10 08:43:00,
2013-08-10 04:53:00,66.0,65.0,30.09,NNW,348,0.0,1.0,95,0.00,,,0.78,,2013-08-10 08:53:00,
2013-08-10 05:02:00,65.0,64.0,30.09,NNW,348,0.0,1.0,95,0.00,,,0.78,,2013-08-10 09:02:00,
2013-08-10 05:12:00,65.0,63.0,30.09,NNW,348,0.0,0.0,94,0.00,,,0.78,,2013-08-10 09:12:00,
2013-08-10 05:22:00,65.0,63.0,30.09,NNW,348,0.0,0.0,94,0.00,,,0.78,,2013-08-10 09:22:00,
2013-08-10 05:32:00,65.0,63.0,30.09,NNW,348,0.0,0.0,94,0.00,,,0.78,,2013-08-10 09:32:00,
2013-08-10 06:02:00,64.0,62.0,30.10,NNW,348,0.0,0.0,94,0.00,,,0.78,,2013-08-10 10:02:00,
2013-08-10 06:11:00,64.0,62.0,30.10,NNW,348,0.0,0.0,94,0.00,,,0.78,,2013-08-10 10:11:00,
2013-08-10 06:33:00,64.0,62.0,30.10,NNW,348,0.0,0.0,94,0.00,,,0.68,,2013-08-10 10:33:00,
2013-08-10 06:44:00,64.0,62.0,30.10,NNW,348,0.0,0.0,94,0.00,,,0.68,,2013-08-10 10:44:00,
2013-08-10 06:52:00,64.0,62.0,30.10,NNW,348,0.0,0.0,94,0.00,,,0.68,,2013-08-10 10:52:00,
2013-08-10 07:33:00,64.0,62.0,30.12,NNW,348,0.0,0.0,94,0.00,,,0.68,,2013-08-10 11:33:00,
2013-08-10 08:32:00,65.0,64.0,30.14,NNW,348,0.0,0.0,95,0.00,,,0.59,,2013-08-10 12:32:00,
2013-08-10 08:52:00,65.0,64.0,30.13,NNW,348,0.0,0.0,95,0.00,,,0.59,,2013-08-10 12:52:00,
2013-08-10 09:01:00,65.0,64.0,30.13,NNW,348,0.0,0.0,95,0.00,,,0.59,,2013-08-10 13:01:00,
2013-08-10 09:43:00,66.0,64.0,30.14,NNW,348,0.0,0.0,94,0.00,,,0.48,,2013-08-10 13:43:00,
2013-08-10 09:52:00,66.0,64.0,30.14,NNW,348,0.0,0.0,94,0.00,,,0.48,,2013-08-10 13:52:00,
2013-08-10 10:02:00,66.0,65.0,30.14,NNW,348,0.0,0.0,95,0.00,,,0.48,,2013-08-10 14:02:00,
2013-08-10 10:33:00,68.0,63.0,30.15,NNW,348,2.0,4.0,84,0.00,,,0.47,,2013-08-10 14:33:00,
2013-08-10 10:43:00,69.0,64.0,30.15,NNW,348,0.0,2.0,84,0.00,,,0.47,,2013-08-10 14:43:00,
2013-08-10 10:53:00,69.0,62.0,30.14,NNE,15,0.0,5.0,79,0.00,,,0.47,,2013-08-10 14:53:00,
2013-08-10 11:02:00,70.0,62.0,30.15,SSW,192,0.0,4.0,75,0.00,,,0.47,,2013-08-10 15:02:00,
2013-08-10 11:12:00,71.0,63.0,30.15,WSW,241,2.0,4.0,77,0.00,,,0.47,,2013-08-10 15:12:00,
2013-08-10 11:34:00,72.0,65.0,30.14,WSW,241,0.0,1.0,79,0.01,,,0.39,,2013-08-10 15:34:00,
2013-08-10 11:52:00,73.0,60.0,30.15,SSE,156,2.0,4.0,63,0.01,,,0.39,,2013-08-10 15:52:00,
2013-08-10 12:02:00,73.0,59.0,30.15,South,180,1.0,5.0,61,0.01,,,0.39,,2013-08-10 16:02:00,
2013-08-10 12:12:00,73.0,61.0,30.14,South,180,0.0,3.0,65,0.01,,,0.39,,2013-08-10 16:12:00,
2013-08-10 12:22:00,74.0,63.0,30.14,South,184,1.0,4.0,69,0.01,,,0.39,,2013-08-10 16:22:00,
2013-08-10 12:43:00,74.0,61.0,30.14,North,5,1.0,6.0,64,0.00,,,0.26,,2013-08-10 16:43:00,
2013-08-10 12:53:00,74.0,62.0,30.14,NW,317,3.0,6.0,66,0.00,,,0.26,,2013-08-10 16:53:00,
2013-08-10 13:02:00,74.0,63.0,30.14,NW,308,0.0,4.0,68,0.00,,,0.26,,2013-08-10 17:02:00,
2013-08-10 13:12:00,75.0,63.0,30.14,NW,309,1.0,8.0,66,0.00,,,0.26,,2013-08-10 17:12:00,
2013-08-10 13:22:00,74.0,61.0,30.14,WNW,291,5.0,8.0,65,0.00,,,0.26,,2013-08-10 17:22:00,
2013-08-10 13:33:00,74.0,62.0,30.14,WNW,302,5.0,11.0,66,0.00,,,0.26,,2013-08-10 17:33:00,
2013-08-10 13:43:00,75.0,62.0,30.15,NNW,331,6.0,11.0,63,0.00,,,0.26,,2013-08-10 17:43:00,
2013-08-10 13:52:00,75.0,59.0,30.14,North,9,4.0,9.0,57,0.00,,,0.26,,2013-08-10 17:52:00,
2013-08-10 14:01:00,75.0,60.0,30.14,WNW,295,1.0,9.0,60,0.00,,,0.26,,2013-08-10 18:01:00,
2013-08-10 14:11:00,75.0,61.0,30.14,North,355,6.0,9.0,62,0.00,,,0.26,,2013-08-10 18:11:00,
2013-08-10 14:23:00,75.0,61.0,30.15,NNE,16,5.0,9.0,61,0.00,,,0.26,,2013-08-10 18:23:00,
2013-08-10 14:32:00,76.0,62.0,30.14,WNW,296,4.0,9.0,63,0.00,,,0.26,,2013-08-10 18:32:00,
2013-08-10 14:44:00,76.0,60.0,30.14,North,355,5.0,9.0,58,0.00,,,0.26,,2013-08-10 18:44:00,
2013-08-10 14:52:00,76.0,59.0,30.14,NNE,15,1.0,9.0,56,0.00,,,0.26,,2013-08-10 18:52:00,
2013-08-10 15:02:00,76.0,61.0,30.13,NNW,347,5.0,8.0,59,0.00,,,0.26,,2013-08-10 19:02:00,
2013-08-10 15:12:00,76.0,58.0,30.13,NNW,345,3.0,10.0,53,0.00,,,0.26,,2013-08-10 19:12:00,
2013-08-10 15:22:00,77.0,56.0,30.13,WSW,240,1.0,7.0,49,0.00,,,0.26,,2013-08-10 19:22:00,
2013-08-10 15:33:00,77.0,56.0,30.13,WNW,285,6.0,9.0,49,0.00,,,0.26,,2013-08-10 19:33:00,
2013-08-10 15:44:00,77.0,57.0,30.14,North,355,4.0,9.0,51,0.00,,,0.26,,2013-08-10 19:44:00,
2013-08-10 15:53:00,77.0,57.0,30.14,NW,325,6.0,11.0,50,0.00,,,0.26,,2013-08-10 19:53:00,
2013-08-10 16:02:00,77.0,57.0,30.13,NNW,340,3.0,11.0,50,0.00,,,0.26,,2013-08-10 20:02:00,
2013-08-10 16:12:00,77.0,56.0,30.13,NNW,335,6.0,11.0,49,0.00,,,0.26,,2013-08-10 20:12:00,
2013-08-10 16:22:00,77.0,57.0,30.13,NNW,336,4.0,10.0,51,0.00,,,0.26,,2013-08-10 20:22:00,
2013-08-10 16:33:00,77.0,59.0,30.13,WNW,291,3.0,7.0,54,0.00,,,0.04,,2013-08-10 20:33:00,
2013-08-10 16:43:00,76.0,60.0,30.13,NNW,335,6.0,8.0,57,0.00,,,0.04,,2013-08-10 20:43:00,
2013-08-10 16:53:00,77.0,63.0,30.13,WNW,285,2.0,6.0,61,0.00,,,0.04,,2013-08-10 20:53:00,
2013-08-10 17:02:00,77.0,60.0,30.13,WNW,282,4.0,8.0,56,0.00,,,0.04,,2013-08-10 21:02:00,
2013-08-10 17:12:00,77.0,61.0,30.13,WNW,302,3.0,7.0,58,0.00,,,0.04,,2013-08-10 21:12:00,
2013-08-10 17:22:00,77.0,60.0,30.12,NW,304,0.0,7.0,55,0.00,,,0.04,,2013-08-10 21:22:00,
2013-08-10 17:32:00,77.0,60.0,30.13,NNW,330,4.0,8.0,56,0.00,,,0.02,,2013-08-10 21:32:00,
2013-08-10 17:42:00,77.0,60.0,30.13,NNW,330,1.0,5.0,55,0.00,,,0.02,,2013-08-10 21:42:00,
2013-08-10 17:52:00,77.0,61.0,30.13,NW,315,2.0,6.0,58,0.00,,,0.02,,2013-08-10 21:52:00,
2013-08-10 18:02:00,77.0,61.0,30.13,NW,315,0.0,4.0,57,0.00,,,0.02,,2013-08-10 22:02:00,
2013-08-10 18:11:00,77.0,61.0,30.13,NW,314,4.0,6.0,58,0.00,,,0.02,,2013-08-10 22:11:00,
2013-08-10 18:21:00,76.0,61.0,30.13,NW,314,0.0,5.0,60,0.00,,,0.02,,2013-08-10 22:21:00,
2013-08-10 18:32:00,77.0,61.0,30.13,WNW,302,0.0,6.0,58,0.00,,,0.01,,2013-08-10 22:32:00,
2013-08-10 18:52:00,77.0,62.0,30.13,NNW,341,0.0,4.0,60,0.00,,,0.01,,2013-08-10 22:52:00,
2013-08-10 19:02:00,77.0,61.0,30.12,NNW,341,0.0,4.0,58,0.00,,,0.01,,2013-08-10 23:02:00,
2013-08-10 19:12:00,77.0,62.0,30.12,NNW,341,0.0,2.0,59,0.00,,,0.01,,2013-08-10 23:12:00,
2013-08-10 19:22:00,77.0,64.0,30.12,NNW,341,0.0,2.0,64,0.00,,,0.01,,2013-08-10 23:22:00,
2013-08-10 19:32:00,77.0,63.0,30.12,NNW,341,0.0,0.0,63,0.00,,,0.01,,2013-08-10 23:32:00,
2013-08-10 19:43:00,76.0,63.0,30.12,NNW,341,0.0,0.0,65,0.00,,,0.01,,2013-08-10 23:43:00,
2013-08-10 19:53:00,75.0,64.0,30.13,NNW,341,0.0,1.0,68,0.00,,,0.01,,2013-08-10 23:53:00,
2013-08-10 20:02:00,74.0,64.0,30.13,NNW,341,0.0,1.0,71,0.00,,,0.01,,2013-08-11 00:02:00,
2013-08-10 20:11:00,73.0,64.0,30.13,NNW,341,0.0,1.0,73,0.00,,,0.01,,2013-08-11 00:11:00,
2013-08-10 20:22:00,72.0,62.0,30.13,NNW,341,0.0,0.0,71,0.00,,,0.01,,2013-08-11 00:22:00,
2013-08-10 20:32:00,72.0,62.0,30.13,NNW,341,0.0,0.0,72,0.00,,,0.01,,2013-08-11 00:32:00,
2013-08-10 20:42:00,71.0,62.0,30.13,NNW,341,0.0,0.0,73,0.00,,,0.01,,2013-08-11 00:42:00,
2013-08-10 20:52:00,70.0,61.0,30.14,NNW,341,0.0,1.0,73,0.00,,,0.01,,2013-08-11 00:52:00,
2013-08-10 21:02:00,70.0,61.0,30.14,NNW,341,0.0,0.0,73,0.00,,,0.01,,2013-08-11 01:02:00,
2013-08-10 21:11:00,70.0,61.0,30.14,NNW,341,0.0,1.0,72,0.00,,,0.01,,2013-08-11 01:11:00,
2013-08-10 21:22:00,70.0,60.0,30.14,NNW,341,0.0,0.0,70,0.00,,,0.01,,2013-08-11 01:22:00,
2013-08-10 21:32:00,69.0,58.0,30.14,NNW,341,0.0,0.0,69,0.00,,,0.01,,2013-08-11 01:32:00,
2013-08-10 21:43:00,69.0,58.0,30.14,NNW,346,0.0,1.0,69,0.00,,,0.01,,2013-08-11 01:43:00,
2013-08-10 21:53:00,69.0,58.0,30.15,NNW,346,0.0,1.0,69,0.00,,,0.01,,2013-08-11 01:53:00,
2013-08-10 22:02:00,69.0,58.0,30.14,NNW,346,0.0,1.0,69,0.00,,,0.01,,2013-08-11 02:02:00,
2013-08-10 22:12:00,68.0,59.0,30.15,NNW,346,0.0,0.0,74,0.00,,,0.01,,2013-08-11 02:12:00,
2013-08-10 22:22:00,68.0,59.0,30.15,NNW,346,0.0,0.0,72,0.00,,,0.01,,2013-08-11 02:22:00,
2013-08-10 22:32:00,67.0,59.0,30.15,NNW,348,0.0,1.0,75,0.00,,,0.01,,2013-08-11 02:32:00,
2013-08-10 22:43:00,67.0,59.0,30.15,North,350,0.0,2.0,76,0.00,,,0.01,,2013-08-11 02:43:00,
2013-08-10 22:56:00,66.0,60.0,30.15,North,355,0.0,2.0,80,0.00,,,0.01,,2013-08-11 02:56:00,
2013-08-10 23:07:00,66.0,60.0,30.15,North,355,0.0,1.0,82,0.00,,,0.01,,2013-08-11 03:07:00,
2013-08-10 23:18:00,65.0,60.0,30.15,North,355,0.0,1.0,83,0.00,,,0.01,,2013-08-11 03:18:00,
2013-08-10 23:28:00,65.0,61.0,30.15,North,355,0.0,1.0,86,0.00,,,0.01,,2013-08-11 03:28:00,
2013-08-10 23:44:00,65.0,61.0,30.15,North,355,0.0,1.0,88,0.00,,,0.01,,2013-08-11 03:44:00,
2013-08-10 23:54:00,65.0,61.0,30.15,North,355,0.0,0.0,88,0.00,,,0.01,,2013-08-11 03:54:00,